Taylor, New York
Current Conditions -  °F | °C
As of 7:35 PM on Thursday 18 Dec 2014 (Local Time) from KN03 Reporting Station
Unknown Precip Unknown Precip  
Wind Chill: 25°   Ceiling: 1600
Heat Index: 30°   Visibility: 4mi
Dew Point: 30°   Wind: 5mph
Humidity: 100%   Direction: 280°W
Pressure: 30.02"   Gusts: NA
Location:  42.5415°N, 75.9009°W
Report Text: KN03 190035Z AUTO 28004KT 4SM UP SCT010 OVC016 M01/M01 A3002 RMK AO2
Loading
Personal Weather Stations






























Interactive Weather Map New forecast layout! Learn more

10-Day Weather Forecast

Advertisements
Track Severe Weather on mobile